VLVT/VTE METAR and TAF weather

Enter ICAO airport designator
Station Type Date Time Source
VLVT METAR 2020/02/28 08:00 UTC NOAA

VLVT 280800Z 18004KT 8000 FEW020 SCT050 31/15 Q1010 NOSIG


Station Type Date Time Source
VLVT Decoded METAR 2020/02/28 08:00 UTC NOAA

Vientiane, Laos (VLVT) 17-57N 102-34E 171M
Feb 28, 2020 - 03:00 AM EST / 2020.02.28 0800 UTC
Wind: from the S (180 degrees) at 5 MPH (4 KT):0
Visibility: 4 mile(s):0
Sky conditions: partly cloudy
Temperature: 87 F (31 C)
Dew Point: 59 F (15 C)
Relative Humidity: 37%
Pressure (altimeter): 29.83 in. Hg (1010 hPa)
ob: VLVT 280800Z 18004KT 8000 FEW020 SCT050 31/15 Q1010 NOSIG
cycle: 8

Station Type Date Time Source
VLVT TAF 2020/02/28 06:39 UTC NOAA

TAF TAF VLVT 280500Z 2806/2906 09004KT 8000 SCT040 FEW200

Example: see airport list